Forside
METAR-TAF:

METAR-TAF

Lufthavne :

Waddington, England

Breddekreds: 53-10N, længdekreds: 000-31W, højde: 68 m

Aktuelle vejr

Denne rapport blev lavet for 22 minutter siden, kl. 13:50 UTC
Vind 9 kt fra nordøst
Temperatur 9°C
Fugtighed 57%
Tryk 1032 hPa
Sigt 10 km eller mere
Brudte skyer i en højde af 3500 ft

METAR: EGXW 311350Z 04009KT 9999 BKN035 09/01 Q1032 NOSIG RMK BLU BLU

Tid: 15:12 (14:12 UTC)

Vejrudsigter

Denne rapport blev lavet for 3 timer og 51 minutter siden, kl. 10:21 UTC
Foreløbig gælder fra 31 på 12 UTC til 01 på 06 UTC
Vind 10 kt fra nordøst
Sigt 10 km eller mere
Spredte skyer i en højde af 3500 ft

TAF: EGXW 311021Z 3112/0106 04010KT 9999 SCT035

Vejrobservationer og prognoser fra mere end 4000 lufthavne (METAR og TAF).

De gule og røde prikker repræsenterer de meteorologiske stationer.

Flyt musen over at se navnet på stationen.

Så klik over at se vejr observationer og prognoser.

At skifte det kort: Klik på de grønne knapper med et sort kors for at zoome ind; på den grønne knap med en bindestreg for at zoome ud; eller på de grønne pile for tilstødende kort.


METAR-TAF: